sensor_id;sensor_type;location;lat;lon;timestamp;P1;durP1;ratioP1;P2;durP2;ratioP2
43626;SDS011;29217;52.586;13.442;2023-07-31T00:01:09;7.22;;;1.90;;
43626;SDS011;29217;52.586;13.442;2023-07-31T00:03:34;6.10;;;1.55;;
43626;SDS011;29217;52.586;13.442;2023-07-31T00:06:00;2.65;;;1.70;;
43626;SDS011;29217;52.586;13.442;2023-07-31T00:08:25;4.47;;;1.73;;
43626;SDS011;29217;52.586;13.442;2023-07-31T00:10:51;6.18;;;1.60;;
43626;SDS011;29217;52.586;13.442;2023-07-31T00:13:18;4.63;;;1.80;;
43626;SDS011;29217;52.586;13.442;2023-07-31T00:15:43;4.47;;;1.50;;
43626;SDS011;29217;52.586;13.442;2023-07-31T00:18:09;4.88;;;1.80;;
43626;SDS011;29217;52.586;13.442;2023-07-31T00:20:34;4.30;;;1.58;;
43626;SDS011;29217;52.586;13.442;2023-07-31T00:23:00;3.08;;;1.40;;
43626;SDS011;29217;52.586;13.442;2023-07-31T00:25:25;5.55;;;2.00;;
43626;SDS011;29217;52.586;13.442;2023-07-31T00:27:51;9.00;;;2.03;;
43626;SDS011;29217;52.586;13.442;2023-07-31T00:30:17;5.93;;;1.80;;
43626;SDS011;29217;52.586;13.442;2023-07-31T00:32:42;5.53;;;1.90;;
43626;SDS011;29217;52.586;13.442;2023-07-31T00:35:08;4.82;;;1.98;;
43626;SDS011;29217;52.586;13.442;2023-07-31T00:37:33;5.43;;;1.70;;
43626;SDS011;29217;52.586;13.442;2023-07-31T00:39:59;4.35;;;1.83;;
43626;SDS011;29217;52.586;13.442;2023-07-31T00:42:25;3.78;;;1.70;;
43626;SDS011;29217;52.586;13.442;2023-07-31T00:44:51;3.70;;;1.67;;
43626;SDS011;29217;52.586;13.442;2023-07-31T00:47:16;4.38;;;1.85;;
43626;SDS011;29217;52.586;13.442;2023-07-31T00:49:42;7.43;;;1.73;;
43626;SDS011;29217;52.586;13.442;2023-07-31T00:52:09;3.03;;;1.58;;
43626;SDS011;29217;52.586;13.442;2023-07-31T00:54:35;3.38;;;1.95;;
43626;SDS011;29217;52.586;13.442;2023-07-31T00:57:01;4.07;;;1.80;;
43626;SDS011;29217;52.586;13.442;2023-07-31T00:59:27;4.88;;;1.73;;
43626;SDS011;29217;52.586;13.442;2023-07-31T01:01:52;3.95;;;1.70;;
43626;SDS011;29217;52.586;13.442;2023-07-31T01:04:18;3.03;;;1.80;;
43626;SDS011;29217;52.586;13.442;2023-07-31T01:06:45;4.43;;;1.60;;
43626;SDS011;29217;52.586;13.442;2023-07-31T01:09:35;2.97;;;1.80;;
43626;SDS011;29217;52.586;13.442;2023-07-31T01:12:07;3.40;;;1.92;;
43626;SDS011;29217;52.586;13.442;2023-07-31T01:14:37;5.45;;;2.40;;
43626;SDS011;29217;52.586;13.442;2023-07-31T01:17:03;3.97;;;1.50;;
43626;SDS011;29217;52.586;13.442;2023-07-31T01:19:29;4.75;;;1.63;;
43626;SDS011;29217;52.586;13.442;2023-07-31T01:24:35;4.63;;;1.70;;
43626;SDS011;29217;52.586;13.442;2023-07-31T01:27:21;5.03;;;1.70;;
43626;SDS011;29217;52.586;13.442;2023-07-31T01:30:00;6.82;;;1.90;;
43626;SDS011;29217;52.586;13.442;2023-07-31T01:32:36;3.20;;;1.85;;
43626;SDS011;29217;52.586;13.442;2023-07-31T01:35:05;4.25;;;1.88;;
43626;SDS011;29217;52.586;13.442;2023-07-31T01:37:31;2.92;;;1.80;;
43626;SDS011;29217;52.586;13.442;2023-07-31T01:39:57;3.75;;;1.85;;
43626;SDS011;29217;52.586;13.442;2023-07-31T01:42:22;4.80;;;1.98;;
43626;SDS011;29217;52.586;13.442;2023-07-31T01:44:48;5.00;;;2.00;;
43626;SDS011;29217;52.586;13.442;2023-07-31T01:47:13;3.95;;;2.03;;
43626;SDS011;29217;52.586;13.442;2023-07-31T01:49:39;5.43;;;2.17;;
43626;SDS011;29217;52.586;13.442;2023-07-31T01:52:05;4.35;;;1.98;;
43626;SDS011;29217;52.586;13.442;2023-07-31T01:54:31;2.78;;;1.90;;
43626;SDS011;29217;52.586;13.442;2023-07-31T01:56:57;3.35;;;2.33;;
43626;SDS011;29217;52.586;13.442;2023-07-31T01:59:23;3.38;;;2.10;;
43626;SDS011;29217;52.586;13.442;2023-07-31T02:01:48;3.08;;;1.98;;
43626;SDS011;29217;52.586;13.442;2023-07-31T02:04:14;6.22;;;1.98;;
43626;SDS011;29217;52.586;13.442;2023-07-31T02:06:39;6.97;;;2.20;;
43626;SDS011;29217;52.586;13.442;2023-07-31T02:09:05;3.15;;;1.92;;
43626;SDS011;29217;52.586;13.442;2023-07-31T02:11:31;3.78;;;1.90;;
43626;SDS011;29217;52.586;13.442;2023-07-31T02:13:56;6.55;;;2.38;;
43626;SDS011;29217;52.586;13.442;2023-07-31T02:16:22;5.07;;;2.30;;
43626;SDS011;29217;52.586;13.442;2023-07-31T02:18:47;2.53;;;2.17;;
43626;SDS011;29217;52.586;13.442;2023-07-31T02:21:13;4.60;;;1.90;;
43626;SDS011;29217;52.586;13.442;2023-07-31T02:23:38;2.70;;;2.20;;
43626;SDS011;29217;52.586;13.442;2023-07-31T02:26:04;5.20;;;2.40;;
43626;SDS011;29217;52.586;13.442;2023-07-31T02:28:30;3.50;;;2.30;;
43626;SDS011;29217;52.586;13.442;2023-07-31T02:30:55;5.93;;;2.60;;
43626;SDS011;29217;52.586;13.442;2023-07-31T02:33:21;6.10;;;2.42;;
43626;SDS011;29217;52.586;13.442;2023-07-31T02:35:46;6.13;;;2.53;;
43626;SDS011;29217;52.586;13.442;2023-07-31T02:38:12;8.38;;;2.58;;
43626;SDS011;29217;52.586;13.442;2023-07-31T02:40:39;3.92;;;2.78;;
43626;SDS011;29217;52.586;13.442;2023-07-31T02:43:08;4.50;;;2.45;;
43626;SDS011;29217;52.586;13.442;2023-07-31T02:45:34;5.13;;;2.45;;
43626;SDS011;29217;52.586;13.442;2023-07-31T02:47:59;12.07;;;2.45;;
43626;SDS011;29217;52.586;13.442;2023-07-31T02:50:25;4.00;;;2.53;;
43626;SDS011;29217;52.586;13.442;2023-07-31T02:52:52;13.18;;;2.53;;
43626;SDS011;29217;52.586;13.442;2023-07-31T02:55:18;4.82;;;2.65;;
43626;SDS011;29217;52.586;13.442;2023-07-31T02:57:43;4.03;;;2.60;;
43626;SDS011;29217;52.586;13.442;2023-07-31T03:00:09;6.38;;;2.80;;
43626;SDS011;29217;52.586;13.442;2023-07-31T03:02:35;3.92;;;2.40;;
43626;SDS011;29217;52.586;13.442;2023-07-31T03:05:00;4.10;;;2.83;;
43626;SDS011;29217;52.586;13.442;2023-07-31T03:07:26;2.95;;;2.15;;
43626;SDS011;29217;52.586;13.442;2023-07-31T03:09:52;5.40;;;3.08;;
43626;SDS011;29217;52.586;13.442;2023-07-31T03:12:17;5.72;;;3.03;;
43626;SDS011;29217;52.586;13.442;2023-07-31T03:14:44;3.90;;;2.38;;
43626;SDS011;29217;52.586;13.442;2023-07-31T03:17:10;3.72;;;2.63;;
43626;SDS011;29217;52.586;13.442;2023-07-31T03:19:35;5.00;;;2.90;;
43626;SDS011;29217;52.586;13.442;2023-07-31T03:22:01;5.72;;;3.00;;
43626;SDS011;29217;52.586;13.442;2023-07-31T03:24:27;6.10;;;3.30;;
43626;SDS011;29217;52.586;13.442;2023-07-31T03:26:53;8.93;;;2.97;;
43626;SDS011;29217;52.586;13.442;2023-07-31T03:29:19;8.27;;;3.15;;
43626;SDS011;29217;52.586;13.442;2023-07-31T03:31:44;7.43;;;3.88;;
43626;SDS011;29217;52.586;13.442;2023-07-31T03:34:10;12.52;;;3.20;;
43626;SDS011;29217;52.586;13.442;2023-07-31T03:36:36;4.97;;;3.30;;
43626;SDS011;29217;52.586;13.442;2023-07-31T03:39:01;7.53;;;3.50;;
43626;SDS011;29217;52.586;13.442;2023-07-31T03:41:28;7.25;;;3.30;;
43626;SDS011;29217;52.586;13.442;2023-07-31T03:43:53;7.72;;;3.85;;
43626;SDS011;29217;52.586;13.442;2023-07-31T03:46:21;5.90;;;3.40;;
43626;SDS011;29217;52.586;13.442;2023-07-31T03:48:47;5.88;;;3.70;;
43626;SDS011;29217;52.586;13.442;2023-07-31T03:51:13;7.47;;;4.10;;
43626;SDS011;29217;52.586;13.442;2023-07-31T03:53:39;9.75;;;3.88;;
43626;SDS011;29217;52.586;13.442;2023-07-31T03:56:04;8.70;;;3.85;;
43626;SDS011;29217;52.586;13.442;2023-07-31T03:58:30;6.13;;;3.72;;
43626;SDS011;29217;52.586;13.442;2023-07-31T04:00:55;7.32;;;3.60;;
43626;SDS011;29217;52.586;13.442;2023-07-31T04:03:21;8.25;;;4.10;;
43626;SDS011;29217;52.586;13.442;2023-07-31T04:05:46;12.85;;;4.30;;
43626;SDS011;29217;52.586;13.442;2023-07-31T04:08:12;6.10;;;3.80;;
43626;SDS011;29217;52.586;13.442;2023-07-31T04:10:37;9.25;;;4.30;;
43626;SDS011;29217;52.586;13.442;2023-07-31T04:13:03;12.52;;;3.85;;
43626;SDS011;29217;52.586;13.442;2023-07-31T04:15:29;6.85;;;4.03;;
43626;SDS011;29217;52.586;13.442;2023-07-31T04:17:54;7.40;;;3.45;;
43626;SDS011;29217;52.586;13.442;2023-07-31T04:20:20;5.93;;;4.10;;
43626;SDS011;29217;52.586;13.442;2023-07-31T04:22:45;10.85;;;3.80;;
43626;SDS011;29217;52.586;13.442;2023-07-31T04:25:11;12.70;;;4.15;;
43626;SDS011;29217;52.586;13.442;2023-07-31T04:27:37;8.02;;;3.50;;
43626;SDS011;29217;52.586;13.442;2023-07-31T04:30:02;12.15;;;3.53;;
43626;SDS011;29217;52.586;13.442;2023-07-31T04:32:28;7.53;;;3.75;;
43626;SDS011;29217;52.586;13.442;2023-07-31T04:34:54;6.40;;;3.78;;
43626;SDS011;29217;52.586;13.442;2023-07-31T04:37:20;9.75;;;4.03;;
43626;SDS011;29217;52.586;13.442;2023-07-31T04:39:46;6.13;;;3.88;;
43626;SDS011;29217;52.586;13.442;2023-07-31T04:42:11;6.03;;;3.50;;
43626;SDS011;29217;52.586;13.442;2023-07-31T04:44:37;8.40;;;3.83;;
43626;SDS011;29217;52.586;13.442;2023-07-31T04:47:03;6.32;;;3.72;;
43626;SDS011;29217;52.586;13.442;2023-07-31T04:49:29;7.13;;;3.92;;
43626;SDS011;29217;52.586;13.442;2023-07-31T04:51:54;10.00;;;4.15;;
43626;SDS011;29217;52.586;13.442;2023-07-31T04:54:20;7.13;;;3.40;;
43626;SDS011;29217;52.586;13.442;2023-07-31T04:56:45;13.35;;;4.22;;
43626;SDS011;29217;52.586;13.442;2023-07-31T04:59:12;9.45;;;4.22;;
43626;SDS011;29217;52.586;13.442;2023-07-31T05:01:37;10.70;;;4.38;;
43626;SDS011;29217;52.586;13.442;2023-07-31T05:04:03;6.80;;;4.22;;
43626;SDS011;29217;52.586;13.442;2023-07-31T05:06:29;6.97;;;3.67;;
43626;SDS011;29217;52.586;13.442;2023-07-31T05:08:54;7.25;;;3.63;;
43626;SDS011;29217;52.586;13.442;2023-07-31T05:11:20;9.82;;;3.92;;
43626;SDS011;29217;52.586;13.442;2023-07-31T05:13:45;7.93;;;3.47;;
43626;SDS011;29217;52.586;13.442;2023-07-31T05:16:11;5.82;;;3.88;;
43626;SDS011;29217;52.586;13.442;2023-07-31T05:18:37;8.43;;;3.83;;
43626;SDS011;29217;52.586;13.442;2023-07-31T05:21:02;8.88;;;3.85;;
43626;SDS011;29217;52.586;13.442;2023-07-31T05:23:28;8.95;;;3.63;;
43626;SDS011;29217;52.586;13.442;2023-07-31T05:25:54;17.83;;;4.55;;
43626;SDS011;29217;52.586;13.442;2023-07-31T05:28:21;12.23;;;3.70;;
43626;SDS011;29217;52.586;13.442;2023-07-31T05:30:46;8.25;;;3.78;;
43626;SDS011;29217;52.586;13.442;2023-07-31T05:33:12;6.28;;;3.60;;
43626;SDS011;29217;52.586;13.442;2023-07-31T05:35:37;5.90;;;3.55;;
43626;SDS011;29217;52.586;13.442;2023-07-31T05:38:03;8.07;;;3.22;;
43626;SDS011;29217;52.586;13.442;2023-07-31T05:40:31;7.70;;;3.72;;
43626;SDS011;29217;52.586;13.442;2023-07-31T05:42:57;7.57;;;3.25;;
43626;SDS011;29217;52.586;13.442;2023-07-31T05:45:23;9.00;;;3.28;;
43626;SDS011;29217;52.586;13.442;2023-07-31T05:47:50;8.20;;;3.53;;
43626;SDS011;29217;52.586;13.442;2023-07-31T05:50:15;7.35;;;3.38;;
43626;SDS011;29217;52.586;13.442;2023-07-31T05:52:41;12.57;;;3.90;;
43626;SDS011;29217;52.586;13.442;2023-07-31T05:55:07;7.82;;;3.20;;
43626;SDS011;29217;52.586;13.442;2023-07-31T05:57:33;10.48;;;3.78;;
43626;SDS011;29217;52.586;13.442;2023-07-31T05:59:58;6.03;;;3.22;;
43626;SDS011;29217;52.586;13.442;2023-07-31T06:02:24;6.38;;;3.33;;
43626;SDS011;29217;52.586;13.442;2023-07-31T06:04:50;8.52;;;3.10;;
43626;SDS011;29217;52.586;13.442;2023-07-31T06:07:15;7.03;;;3.20;;
43626;SDS011;29217;52.586;13.442;2023-07-31T06:09:41;5.95;;;3.05;;
43626;SDS011;29217;52.586;13.442;2023-07-31T06:12:07;5.07;;;3.00;;
43626;SDS011;29217;52.586;13.442;2023-07-31T06:14:32;8.32;;;3.00;;
43626;SDS011;29217;52.586;13.442;2023-07-31T06:16:58;8.68;;;2.85;;
43626;SDS011;29217;52.586;13.442;2023-07-31T06:19:23;5.35;;;3.20;;
43626;SDS011;29217;52.586;13.442;2023-07-31T06:21:49;5.13;;;3.10;;
43626;SDS011;29217;52.586;13.442;2023-07-31T06:24:15;7.25;;;3.08;;
43626;SDS011;29217;52.586;13.442;2023-07-31T06:26:44;5.63;;;2.80;;
43626;SDS011;29217;52.586;13.442;2023-07-31T06:29:09;7.82;;;3.20;;
43626;SDS011;29217;52.586;13.442;2023-07-31T06:31:35;6.13;;;2.83;;
43626;SDS011;29217;52.586;13.442;2023-07-31T06:34:00;6.68;;;3.20;;
43626;SDS011;29217;52.586;13.442;2023-07-31T06:36:26;6.47;;;3.05;;
43626;SDS011;29217;52.586;13.442;2023-07-31T06:38:52;7.90;;;3.30;;
43626;SDS011;29217;52.586;13.442;2023-07-31T06:41:17;4.35;;;2.78;;
43626;SDS011;29217;52.586;13.442;2023-07-31T06:43:43;8.60;;;3.20;;
43626;SDS011;29217;52.586;13.442;2023-07-31T06:46:08;5.93;;;3.25;;
43626;SDS011;29217;52.586;13.442;2023-07-31T06:48:34;10.65;;;3.22;;
43626;SDS011;29217;52.586;13.442;2023-07-31T06:51:02;7.88;;;3.17;;
43626;SDS011;29217;52.586;13.442;2023-07-31T06:53:28;5.97;;;2.67;;
43626;SDS011;29217;52.586;13.442;2023-07-31T06:55:54;6.22;;;2.95;;
43626;SDS011;29217;52.586;13.442;2023-07-31T06:58:19;7.03;;;3.13;;
43626;SDS011;29217;52.586;13.442;2023-07-31T07:00:45;6.40;;;2.50;;
43626;SDS011;29217;52.586;13.442;2023-07-31T07:03:10;6.80;;;3.00;;
43626;SDS011;29217;52.586;13.442;2023-07-31T07:05:36;6.68;;;2.70;;
43626;SDS011;29217;52.586;13.442;2023-07-31T07:08:02;7.50;;;3.50;;
43626;SDS011;29217;52.586;13.442;2023-07-31T07:10:27;8.25;;;2.60;;
43626;SDS011;29217;52.586;13.442;2023-07-31T07:12:53;8.35;;;2.75;;
43626;SDS011;29217;52.586;13.442;2023-07-31T07:15:20;6.63;;;2.85;;
43626;SDS011;29217;52.586;13.442;2023-07-31T07:17:46;7.05;;;2.85;;
43626;SDS011;29217;52.586;13.442;2023-07-31T07:20:11;5.50;;;2.67;;
43626;SDS011;29217;52.586;13.442;2023-07-31T07:22:37;9.63;;;2.83;;
43626;SDS011;29217;52.586;13.442;2023-07-31T07:25:03;5.68;;;2.60;;
43626;SDS011;29217;52.586;13.442;2023-07-31T07:27:30;4.15;;;2.45;;
43626;SDS011;29217;52.586;13.442;2023-07-31T07:29:55;6.65;;;2.35;;
43626;SDS011;29217;52.586;13.442;2023-07-31T07:32:21;8.32;;;2.58;;
43626;SDS011;29217;52.586;13.442;2023-07-31T07:34:47;6.50;;;2.63;;
43626;SDS011;29217;52.586;13.442;2023-07-31T07:37:13;3.75;;;2.30;;
43626;SDS011;29217;52.586;13.442;2023-07-31T07:39:39;8.88;;;2.58;;
43626;SDS011;29217;52.586;13.442;2023-07-31T07:42:05;7.07;;;2.45;;
43626;SDS011;29217;52.586;13.442;2023-07-31T07:44:30;7.15;;;2.60;;
43626;SDS011;29217;52.586;13.442;2023-07-31T07:46:56;5.30;;;2.35;;
43626;SDS011;29217;52.586;13.442;2023-07-31T07:49:22;4.20;;;2.05;;
43626;SDS011;29217;52.586;13.442;2023-07-31T07:51:48;3.42;;;2.00;;
43626;SDS011;29217;52.586;13.442;2023-07-31T07:54:14;5.68;;;2.50;;
43626;SDS011;29217;52.586;13.442;2023-07-31T07:56:39;4.72;;;2.58;;
43626;SDS011;29217;52.586;13.442;2023-07-31T07:59:05;4.93;;;2.22;;
43626;SDS011;29217;52.586;13.442;2023-07-31T08:01:31;8.23;;;2.45;;
43626;SDS011;29217;52.586;13.442;2023-07-31T08:03:56;7.55;;;2.05;;
43626;SDS011;29217;52.586;13.442;2023-07-31T08:06:22;6.75;;;2.40;;
43626;SDS011;29217;52.586;13.442;2023-07-31T08:08:48;6.15;;;2.75;;
43626;SDS011;29217;52.586;13.442;2023-07-31T08:11:13;5.43;;;2.58;;
43626;SDS011;29217;52.586;13.442;2023-07-31T08:13:39;6.38;;;2.50;;
43626;SDS011;29217;52.586;13.442;2023-07-31T08:16:05;5.43;;;2.40;;
43626;SDS011;29217;52.586;13.442;2023-07-31T08:18:31;7.63;;;2.40;;
43626;SDS011;29217;52.586;13.442;2023-07-31T08:20:57;5.50;;;2.55;;
43626;SDS011;29217;52.586;13.442;2023-07-31T08:23:23;4.22;;;2.10;;
43626;SDS011;29217;52.586;13.442;2023-07-31T08:25:49;4.55;;;2.28;;
43626;SDS011;29217;52.586;13.442;2023-07-31T08:28:15;3.53;;;2.20;;
43626;SDS011;29217;52.586;13.442;2023-07-31T08:30:41;3.55;;;2.08;;
43626;SDS011;29217;52.586;13.442;2023-07-31T08:33:07;4.03;;;2.08;;
43626;SDS011;29217;52.586;13.442;2023-07-31T08:35:33;3.05;;;1.95;;
43626;SDS011;29217;52.586;13.442;2023-07-31T08:37:58;2.83;;;1.92;;
43626;SDS011;29217;52.586;13.442;2023-07-31T08:40:24;6.70;;;2.40;;
43626;SDS011;29217;52.586;13.442;2023-07-31T08:42:54;9.48;;;2.22;;
43626;SDS011;29217;52.586;13.442;2023-07-31T08:45:21;7.10;;;1.95;;
43626;SDS011;29217;52.586;13.442;2023-07-31T08:47:51;3.90;;;2.10;;
43626;SDS011;29217;52.586;13.442;2023-07-31T08:50:17;3.97;;;2.10;;
43626;SDS011;29217;52.586;13.442;2023-07-31T08:52:49;4.80;;;2.00;;
43626;SDS011;29217;52.586;13.442;2023-07-31T08:55:16;3.22;;;1.80;;
43626;SDS011;29217;52.586;13.442;2023-07-31T08:57:42;4.13;;;1.88;;
43626;SDS011;29217;52.586;13.442;2023-07-31T09:00:09;3.25;;;1.95;;
43626;SDS011;29217;52.586;13.442;2023-07-31T09:02:41;4.18;;;1.98;;
43626;SDS011;29217;52.586;13.442;2023-07-31T09:05:17;3.10;;;1.88;;
43626;SDS011;29217;52.586;13.442;2023-07-31T09:07:44;3.13;;;2.10;;
43626;SDS011;29217;52.586;13.442;2023-07-31T09:10:12;6.10;;;2.28;;
43626;SDS011;29217;52.586;13.442;2023-07-31T09:12:38;3.20;;;1.98;;
43626;SDS011;29217;52.586;13.442;2023-07-31T09:15:04;3.58;;;2.30;;
43626;SDS011;29217;52.586;13.442;2023-07-31T09:17:31;3.38;;;1.90;;
43626;SDS011;29217;52.586;13.442;2023-07-31T09:20:04;3.63;;;2.10;;
43626;SDS011;29217;52.586;13.442;2023-07-31T09:22:42;2.30;;;1.90;;
43626;SDS011;29217;52.586;13.442;2023-07-31T09:25:15;6.90;;;2.28;;
43626;SDS011;29217;52.586;13.442;2023-07-31T09:30:26;2.40;;;1.90;;
43626;SDS011;29217;52.586;13.442;2023-07-31T09:33:02;2.42;;;1.63;;
43626;SDS011;29217;52.586;13.442;2023-07-31T09:35:32;5.57;;;1.73;;
43626;SDS011;29217;52.586;13.442;2023-07-31T09:38:20;3.88;;;1.98;;
43626;SDS011;29217;52.586;13.442;2023-07-31T09:40:45;3.22;;;1.67;;
43626;SDS011;29217;52.586;13.442;2023-07-31T09:46:17;3.47;;;1.65;;
43626;SDS011;29217;52.586;13.442;2023-07-31T09:48:46;6.35;;;2.00;;
43626;SDS011;29217;52.586;13.442;2023-07-31T09:51:11;3.83;;;1.70;;
43626;SDS011;29217;52.586;13.442;2023-07-31T09:53:37;4.50;;;1.80;;
43626;SDS011;29217;52.586;13.442;2023-07-31T09:56:02;3.00;;;1.75;;
43626;SDS011;29217;52.586;13.442;2023-07-31T09:58:29;3.30;;;1.90;;
43626;SDS011;29217;52.586;13.442;2023-07-31T10:00:58;3.38;;;1.90;;
43626;SDS011;29217;52.586;13.442;2023-07-31T10:03:26;2.60;;;1.75;;
43626;SDS011;29217;52.586;13.442;2023-07-31T10:05:55;2.92;;;1.65;;
43626;SDS011;29217;52.586;13.442;2023-07-31T10:08:23;2.85;;;1.70;;
43626;SDS011;29217;52.586;13.442;2023-07-31T10:10:54;2.42;;;1.48;;
43626;SDS011;29217;52.586;13.442;2023-07-31T10:13:24;2.35;;;1.40;;
43626;SDS011;29217;52.586;13.442;2023-07-31T10:15:52;2.90;;;1.70;;
43626;SDS011;29217;52.586;13.442;2023-07-31T10:18:19;2.83;;;1.73;;
43626;SDS011;29217;52.586;13.442;2023-07-31T10:20:45;6.38;;;1.65;;
43626;SDS011;29217;52.586;13.442;2023-07-31T10:23:12;3.95;;;1.92;;
43626;SDS011;29217;52.586;13.442;2023-07-31T10:25:38;5.22;;;2.10;;
43626;SDS011;29217;52.586;13.442;2023-07-31T10:28:04;3.58;;;2.10;;
43626;SDS011;29217;52.586;13.442;2023-07-31T10:30:31;3.70;;;2.40;;
43626;SDS011;29217;52.586;13.442;2023-07-31T10:32:58;6.07;;;2.60;;
43626;SDS011;29217;52.586;13.442;2023-07-31T10:35:25;5.22;;;2.75;;
43626;SDS011;29217;52.586;13.442;2023-07-31T10:37:50;4.28;;;2.60;;
43626;SDS011;29217;52.586;13.442;2023-07-31T10:40:24;5.25;;;2.90;;
43626;SDS011;29217;52.586;13.442;2023-07-31T10:42:51;4.53;;;2.80;;
43626;SDS011;29217;52.586;13.442;2023-07-31T10:45:34;7.93;;;3.20;;
43626;SDS011;29217;52.586;13.442;2023-07-31T10:50:38;6.63;;;3.50;;
43626;SDS011;29217;52.586;13.442;2023-07-31T10:53:22;5.32;;;3.38;;
43626;SDS011;29217;52.586;13.442;2023-07-31T10:55:49;9.20;;;3.90;;
43626;SDS011;29217;52.586;13.442;2023-07-31T10:58:18;9.23;;;3.90;;
43626;SDS011;29217;52.586;13.442;2023-07-31T11:00:44;7.68;;;3.63;;
43626;SDS011;29217;52.586;13.442;2023-07-31T11:08:13;4.25;;;3.00;;
43626;SDS011;29217;52.586;13.442;2023-07-31T11:10:40;6.75;;;3.40;;
43626;SDS011;29217;52.586;13.442;2023-07-31T11:13:07;9.02;;;3.25;;
43626;SDS011;29217;52.586;13.442;2023-07-31T11:15:32;6.82;;;2.67;;
43626;SDS011;29217;52.586;13.442;2023-07-31T11:17:59;9.00;;;3.03;;
43626;SDS011;29217;52.586;13.442;2023-07-31T11:20:32;4.68;;;2.60;;
43626;SDS011;29217;52.586;13.442;2023-07-31T11:22:58;5.03;;;2.72;;
43626;SDS011;29217;52.586;13.442;2023-07-31T11:25:29;5.63;;;2.42;;
43626;SDS011;29217;52.586;13.442;2023-07-31T11:27:56;5.05;;;2.60;;
43626;SDS011;29217;52.586;13.442;2023-07-31T11:30:22;10.63;;;3.08;;
43626;SDS011;29217;52.586;13.442;2023-07-31T11:32:48;5.18;;;2.78;;
43626;SDS011;29217;52.586;13.442;2023-07-31T11:35:14;5.13;;;2.78;;
43626;SDS011;29217;52.586;13.442;2023-07-31T11:37:41;5.95;;;2.92;;
43626;SDS011;29217;52.586;13.442;2023-07-31T11:40:07;4.82;;;2.60;;
43626;SDS011;29217;52.586;13.442;2023-07-31T11:42:34;4.57;;;2.80;;
43626;SDS011;29217;52.586;13.442;2023-07-31T11:45:04;6.75;;;2.75;;
43626;SDS011;29217;52.586;13.442;2023-07-31T11:47:32;5.22;;;2.63;;
43626;SDS011;29217;52.586;13.442;2023-07-31T11:50:02;6.90;;;2.92;;
43626;SDS011;29217;52.586;13.442;2023-07-31T11:52:30;9.80;;;3.90;;
43626;SDS011;29217;52.586;13.442;2023-07-31T11:54:59;4.95;;;2.67;;
43626;SDS011;29217;52.586;13.442;2023-07-31T11:57:25;4.88;;;2.60;;
43626;SDS011;29217;52.586;13.442;2023-07-31T11:59:52;5.45;;;2.80;;
43626;SDS011;29217;52.586;13.442;2023-07-31T12:02:18;3.90;;;2.45;;
43626;SDS011;29217;52.586;13.442;2023-07-31T12:04:45;7.00;;;2.47;;
43626;SDS011;29217;52.586;13.442;2023-07-31T12:07:11;4.60;;;2.75;;
43626;SDS011;29217;52.586;13.442;2023-07-31T12:09:37;4.97;;;2.60;;
43626;SDS011;29217;52.586;13.442;2023-07-31T12:12:03;6.05;;;2.80;;
43626;SDS011;29217;52.586;13.442;2023-07-31T12:14:34;4.55;;;2.45;;
43626;SDS011;29217;52.586;13.442;2023-07-31T12:17:04;8.95;;;2.80;;
43626;SDS011;29217;52.586;13.442;2023-07-31T12:19:32;6.25;;;2.67;;
43626;SDS011;29217;52.586;13.442;2023-07-31T12:21:58;5.78;;;2.92;;
43626;SDS011;29217;52.586;13.442;2023-07-31T12:24:28;6.85;;;2.15;;
43626;SDS011;29217;52.586;13.442;2023-07-31T12:26:53;6.40;;;2.65;;
43626;SDS011;29217;52.586;13.442;2023-07-31T12:29:20;8.13;;;2.63;;
43626;SDS011;29217;52.586;13.442;2023-07-31T12:31:45;3.95;;;2.13;;
43626;SDS011;29217;52.586;13.442;2023-07-31T12:34:15;3.70;;;2.33;;
43626;SDS011;29217;52.586;13.442;2023-07-31T12:36:42;6.15;;;2.60;;
43626;SDS011;29217;52.586;13.442;2023-07-31T12:39:08;8.57;;;2.53;;
43626;SDS011;29217;52.586;13.442;2023-07-31T12:41:34;7.68;;;2.58;;
43626;SDS011;29217;52.586;13.442;2023-07-31T12:43:59;6.32;;;3.40;;
43626;SDS011;29217;52.586;13.442;2023-07-31T12:46:25;3.40;;;2.20;;
43626;SDS011;29217;52.586;13.442;2023-07-31T12:48:50;4.82;;;2.80;;
43626;SDS011;29217;52.586;13.442;2023-07-31T12:51:16;4.95;;;2.63;;
43626;SDS011;29217;52.586;13.442;2023-07-31T12:53:42;5.53;;;2.33;;
43626;SDS011;29217;52.586;13.442;2023-07-31T12:56:07;8.27;;;2.63;;
43626;SDS011;29217;52.586;13.442;2023-07-31T12:58:33;4.50;;;2.13;;
43626;SDS011;29217;52.586;13.442;2023-07-31T13:00:58;2.58;;;1.83;;
43626;SDS011;29217;52.586;13.442;2023-07-31T13:03:24;5.10;;;2.45;;
43626;SDS011;29217;52.586;13.442;2023-07-31T13:05:50;4.13;;;2.58;;
43626;SDS011;29217;52.586;13.442;2023-07-31T13:08:17;8.13;;;2.50;;
43626;SDS011;29217;52.586;13.442;2023-07-31T13:10:42;4.93;;;2.22;;
43626;SDS011;29217;52.586;13.442;2023-07-31T13:13:09;5.90;;;2.50;;
43626;SDS011;29217;52.586;13.442;2023-07-31T13:15:35;5.95;;;2.38;;
43626;SDS011;29217;52.586;13.442;2023-07-31T13:18:00;5.13;;;1.90;;
43626;SDS011;29217;52.586;13.442;2023-07-31T13:20:26;3.35;;;1.70;;
43626;SDS011;29217;52.586;13.442;2023-07-31T13:22:52;7.70;;;1.98;;
43626;SDS011;29217;52.586;13.442;2023-07-31T13:25:17;3.20;;;1.70;;
43626;SDS011;29217;52.586;13.442;2023-07-31T13:27:43;4.28;;;2.10;;
43626;SDS011;29217;52.586;13.442;2023-07-31T13:30:09;5.10;;;1.92;;
43626;SDS011;29217;52.586;13.442;2023-07-31T13:32:35;2.63;;;1.80;;
43626;SDS011;29217;52.586;13.442;2023-07-31T13:35:06;3.22;;;1.98;;
43626;SDS011;29217;52.586;13.442;2023-07-31T13:37:33;4.15;;;1.95;;
43626;SDS011;29217;52.586;13.442;2023-07-31T13:39:59;7.28;;;1.92;;
43626;SDS011;29217;52.586;13.442;2023-07-31T13:42:25;3.20;;;1.80;;
43626;SDS011;29217;52.586;13.442;2023-07-31T13:44:51;7.63;;;2.20;;
43626;SDS011;29217;52.586;13.442;2023-07-31T13:47:17;4.57;;;2.28;;
43626;SDS011;29217;52.586;13.442;2023-07-31T13:49:42;3.33;;;1.92;;
43626;SDS011;29217;52.586;13.442;2023-07-31T13:52:08;2.85;;;1.92;;
43626;SDS011;29217;52.586;13.442;2023-07-31T13:54:34;4.88;;;2.00;;
43626;SDS011;29217;52.586;13.442;2023-07-31T13:57:00;4.30;;;2.10;;
43626;SDS011;29217;52.586;13.442;2023-07-31T13:59:25;4.05;;;2.13;;
43626;SDS011;29217;52.586;13.442;2023-07-31T14:01:51;3.42;;;2.13;;
43626;SDS011;29217;52.586;13.442;2023-07-31T14:04:17;4.40;;;2.42;;
43626;SDS011;29217;52.586;13.442;2023-07-31T14:06:43;3.55;;;2.17;;
43626;SDS011;29217;52.586;13.442;2023-07-31T14:09:09;4.70;;;2.15;;
43626;SDS011;29217;52.586;13.442;2023-07-31T14:11:34;6.53;;;2.60;;
43626;SDS011;29217;52.586;13.442;2023-07-31T14:14:00;5.15;;;2.63;;
43626;SDS011;29217;52.586;13.442;2023-07-31T14:16:29;4.20;;;2.13;;
43626;SDS011;29217;52.586;13.442;2023-07-31T14:18:55;3.92;;;2.20;;
43626;SDS011;29217;52.586;13.442;2023-07-31T14:21:20;3.38;;;2.22;;
43626;SDS011;29217;52.586;13.442;2023-07-31T14:23:46;5.22;;;2.58;;
43626;SDS011;29217;52.586;13.442;2023-07-31T14:26:12;3.95;;;1.98;;
43626;SDS011;29217;52.586;13.442;2023-07-31T14:28:37;9.60;;;2.30;;
43626;SDS011;29217;52.586;13.442;2023-07-31T14:31:03;5.25;;;2.08;;
43626;SDS011;29217;52.586;13.442;2023-07-31T14:33:29;5.07;;;2.35;;
43626;SDS011;29217;52.586;13.442;2023-07-31T14:35:55;4.80;;;2.58;;
43626;SDS011;29217;52.586;13.442;2023-07-31T14:38:20;5.95;;;2.25;;
43626;SDS011;29217;52.586;13.442;2023-07-31T14:40:46;4.50;;;2.67;;
43626;SDS011;29217;52.586;13.442;2023-07-31T14:43:12;3.33;;;2.17;;
43626;SDS011;29217;52.586;13.442;2023-07-31T14:45:37;5.13;;;2.13;;